Time,TemperatureF,DewpointF,PressureIn,WindDirection,WindDirectionDegrees,WindSpeedMPH,WindSpeedGustMPH,Humidity,HourlyPrecipIn,Conditions,Clouds,dailyrainin,SoftwareType,DateUTC
2013-08-18 00:00:00,77.5,76.0,30.07,NNE,32,0.0,0.0,95,0.00,-RA,,0.00,WeatherDisplay:10.37,2013-08-18 04:00:00,
2013-08-18 00:01:00,77.5,76.0,30.07,NNE,32,0.0,0.0,95,0.00,-RA,,0.00,WeatherDisplay:10.37,2013-08-18 04:01:00,
2013-08-18 00:02:00,77.5,76.0,30.07,NNE,32,0.0,0.0,95,0.00,FEW,,0.00,WeatherDisplay:10.37,2013-08-18 04:02:00,
2013-08-18 00:04:00,77.5,76.3,30.07,NNE,32,1.1,0.0,96,0.00,FEW,,0.00,WeatherDisplay:10.37,2013-08-18 04:04:00,
2013-08-18 00:09:00,77.5,76.3,30.07,NNE,32,0.0,0.0,96,0.00,FEW,,0.00,WeatherDisplay:10.37,2013-08-18 04:09:00,
2013-08-18 00:16:00,77.5,76.3,30.07,NNE,30,1.1,1.1,96,0.00,FEW,,0.00,WeatherDisplay:10.37,2013-08-18 04:16:00,
2013-08-18 00:21:00,77.6,76.4,30.07,NNE,33,1.1,1.1,96,0.00,FEW,,0.00,WeatherDisplay:10.37,2013-08-18 04:21:00,
2013-08-18 00:31:00,77.6,76.7,30.07,NNE,33,0.0,0.0,97,0.00,FEW,,0.00,WeatherDisplay:10.37,2013-08-18 04:31:00,
2013-08-18 00:36:00,77.6,76.7,30.06,NNE,33,0.0,0.0,97,0.00,FEW,,0.00,WeatherDisplay:10.37,2013-08-18 04:36:00,
2013-08-18 00:46:00,77.6,76.7,30.07,ENE,57,1.1,1.1,97,0.00,FEW,,0.00,WeatherDisplay:10.37,2013-08-18 04:46:00,
2013-08-18 00:51:00,77.6,76.7,30.07,ENE,57,0.0,0.0,97,0.00,FEW,,0.00,WeatherDisplay:10.37,2013-08-18 04:51:00,
2013-08-18 01:00:00,77.6,76.7,30.06,ENE,57,0.0,0.0,97,0.00,FEW,,0.00,WeatherDisplay:10.37,2013-08-18 05:00:00,
2013-08-18 01:01:00,77.7,76.8,30.06,NE,39,1.1,1.1,97,0.00,SCT,,0.00,WeatherDisplay:10.37,2013-08-18 05:01:00,
2013-08-18 01:05:00,77.7,76.8,30.07,ENE,57,1.1,1.1,97,0.00,SCT,,0.00,WeatherDisplay:10.37,2013-08-18 05:05:00,
2013-08-18 01:10:00,77.7,76.8,30.07,ENE,57,2.3,2.3,97,0.00,SCT,,0.00,WeatherDisplay:10.37,2013-08-18 05:10:00,
2013-08-18 01:16:00,77.8,76.9,30.06,NE,40,1.1,1.1,97,0.00,SCT,,0.00,WeatherDisplay:10.37,2013-08-18 05:16:00,
2013-08-18 01:21:00,77.9,77.0,30.06,NE,40,2.3,2.3,97,0.00,SCT,,0.00,WeatherDisplay:10.37,2013-08-18 05:21:00,
2013-08-18 01:31:00,77.9,77.0,30.06,NE,40,1.1,1.1,97,0.00,SCT,,0.00,WeatherDisplay:10.37,2013-08-18 05:31:00,
2013-08-18 01:36:00,77.9,77.0,30.05,NE,40,1.1,0.0,97,0.00,SCT,,0.00,WeatherDisplay:10.37,2013-08-18 05:36:00,
2013-08-18 01:46:00,78.0,77.1,30.06,North,360,0.0,0.0,97,0.00,SCT,,0.00,WeatherDisplay:10.37,2013-08-18 05:46:00,
2013-08-18 01:51:00,78.0,77.1,30.05,North,360,0.0,0.0,97,0.00,SCT,,0.00,WeatherDisplay:10.37,2013-08-18 05:51:00,
2013-08-18 02:00:00,78.0,77.1,30.06,North,360,0.0,0.0,97,0.00,SCT,,0.00,WeatherDisplay:10.37,2013-08-18 06:00:00,
2013-08-18 02:01:00,78.0,77.1,30.05,NW,317,1.1,1.1,97,0.00,SCT,,0.00,WeatherDisplay:10.37,2013-08-18 06:01:00,
2013-08-18 02:05:00,78.0,77.1,30.05,North,360,0.0,0.0,97,0.00,SCT,,0.00,WeatherDisplay:10.37,2013-08-18 06:05:00,
2013-08-18 02:10:00,78.0,77.1,30.05,NW,318,1.1,1.1,97,0.00,SCT,,0.00,WeatherDisplay:10.37,2013-08-18 06:10:00,
2013-08-18 02:16:00,78.0,77.1,30.05,NW,317,0.0,0.0,97,0.00,SCT,,0.00,WeatherDisplay:10.37,2013-08-18 06:16:00,
2013-08-18 02:21:00,78.0,77.1,30.05,NW,317,1.1,0.0,97,0.00,SCT,,0.00,WeatherDisplay:10.37,2013-08-18 06:21:00,
2013-08-18 02:31:00,78.0,77.1,30.05,NW,317,0.0,0.0,97,0.00,SCT,,0.00,WeatherDisplay:10.37,2013-08-18 06:31:00,
2013-08-18 02:36:00,77.9,77.0,30.05,NW,317,0.0,0.0,97,0.00,SCT,,0.00,WeatherDisplay:10.37,2013-08-18 06:36:00,
2013-08-18 02:46:00,77.9,77.0,30.04,NW,321,0.0,0.0,97,0.00,SCT,,0.00,WeatherDisplay:10.37,2013-08-18 06:46:00,
2013-08-18 02:51:00,77.9,77.0,30.04,NW,321,0.0,0.0,97,0.00,SCT,,0.00,WeatherDisplay:10.37,2013-08-18 06:51:00,
2013-08-18 03:00:00,77.9,77.0,30.03,NE,48,2.3,2.3,97,0.00,SCT,,0.00,WeatherDisplay:10.37,2013-08-18 07:00:00,
2013-08-18 03:01:00,78.0,77.1,30.03,NE,44,1.1,1.1,97,0.00,FEW,,0.00,WeatherDisplay:10.37,2013-08-18 07:01:00,
2013-08-18 03:05:00,77.9,77.0,30.03,ENE,67,2.3,2.3,97,0.00,FEW,,0.00,WeatherDisplay:10.37,2013-08-18 07:05:00,
2013-08-18 03:10:00,78.0,77.1,30.03,NE,44,2.3,2.3,97,0.00,FEW,,0.00,WeatherDisplay:10.37,2013-08-18 07:10:00,
2013-08-18 03:16:00,78.0,77.1,30.03,ENE,57,2.3,2.3,97,0.00,FEW,,0.00,WeatherDisplay:10.37,2013-08-18 07:16:00,
2013-08-18 03:21:00,78.1,77.2,30.03,ESE,123,3.4,3.4,97,0.00,FEW,,0.00,WeatherDisplay:10.37,2013-08-18 07:21:00,
2013-08-18 03:31:00,78.1,77.2,30.03,East,80,2.3,2.3,97,0.00,FEW,,0.00,WeatherDisplay:10.37,2013-08-18 07:31:00,
2013-08-18 03:36:00,78.2,77.3,30.03,ESE,109,3.4,3.4,97,0.00,FEW,,0.00,WeatherDisplay:10.37,2013-08-18 07:36:00,
2013-08-18 03:46:00,78.2,77.3,30.02,East,90,3.4,3.4,97,0.00,FEW,,0.00,WeatherDisplay:10.37,2013-08-18 07:46:00,
2013-08-18 03:51:00,78.2,77.3,30.02,ESE,107,3.4,3.4,97,0.00,FEW,,0.00,WeatherDisplay:10.37,2013-08-18 07:51:00,
2013-08-18 04:00:00,78.3,77.4,30.02,ESE,111,3.4,3.4,97,0.00,FEW,,0.00,WeatherDisplay:10.37,2013-08-18 08:00:00,
2013-08-18 04:01:00,78.4,77.5,30.02,ESE,111,3.4,3.4,97,0.00,CLR,,0.00,WeatherDisplay:10.37,2013-08-18 08:01:00,
2013-08-18 04:05:00,78.3,77.4,30.02,SE,126,3.4,3.4,97,0.00,CLR,,0.00,WeatherDisplay:10.37,2013-08-18 08:05:00,
2013-08-18 04:10:00,78.4,77.5,30.02,SE,130,4.0,4.0,97,0.00,CLR,,0.00,WeatherDisplay:10.37,2013-08-18 08:10:00,
2013-08-18 04:16:00,78.4,77.5,30.02,SE,131,3.4,3.4,97,0.00,CLR,,0.00,WeatherDisplay:10.37,2013-08-18 08:16:00,
2013-08-18 04:21:00,78.4,77.5,30.02,ESE,108,3.4,3.4,97,0.00,CLR,,0.00,WeatherDisplay:10.37,2013-08-18 08:21:00,
2013-08-18 04:31:00,78.4,77.5,30.02,East,90,3.4,3.4,97,0.00,CLR,,0.00,WeatherDisplay:10.37,2013-08-18 08:31:00,
2013-08-18 04:36:00,78.4,77.5,30.02,East,92,2.3,2.3,97,0.00,CLR,,0.00,WeatherDisplay:10.37,2013-08-18 08:36:00,
2013-08-18 04:46:00,78.5,77.6,30.02,ESE,117,3.4,3.4,97,0.00,CLR,,0.00,WeatherDisplay:10.37,2013-08-18 08:46:00,
2013-08-18 04:51:00,78.5,77.6,30.02,East,101,5.8,5.8,97,0.00,CLR,,0.00,WeatherDisplay:10.37,2013-08-18 08:51:00,
2013-08-18 05:00:00,78.5,77.3,30.02,NE,36,3.4,3.4,96,0.00,CLR,,0.00,WeatherDisplay:10.37,2013-08-18 09:00:00,
2013-08-18 05:01:00,78.5,77.3,30.02,ESE,103,2.3,2.3,96,0.00,CLR,,0.00,WeatherDisplay:10.37,2013-08-18 09:01:00,
2013-08-18 05:05:00,78.5,77.3,30.02,ESE,106,3.4,3.4,96,0.00,CLR,,0.00,WeatherDisplay:10.37,2013-08-18 09:05:00,
2013-08-18 05:10:00,78.5,77.3,30.02,ESE,103,2.3,2.3,96,0.00,CLR,,0.00,WeatherDisplay:10.37,2013-08-18 09:10:00,
2013-08-18 05:16:00,78.5,77.3,30.02,ESE,119,2.3,2.3,96,0.00,CLR,,0.00,WeatherDisplay:10.37,2013-08-18 09:16:00,
2013-08-18 05:21:00,78.4,77.2,30.02,ESE,121,3.4,3.4,96,0.00,CLR,,0.00,WeatherDisplay:10.37,2013-08-18 09:21:00,
2013-08-18 05:31:00,78.4,77.2,30.02,SE,129,3.4,3.4,96,0.00,CLR,,0.00,WeatherDisplay:10.37,2013-08-18 09:31:00,
2013-08-18 05:36:00,78.4,77.2,30.02,ESE,113,2.3,2.3,96,0.00,CLR,,0.00,WeatherDisplay:10.37,2013-08-18 09:36:00,
2013-08-18 05:46:00,78.4,77.2,30.03,SE,136,2.3,2.3,96,0.00,CLR,,0.00,WeatherDisplay:10.37,2013-08-18 09:46:00,
2013-08-18 05:51:00,78.4,77.2,30.03,ESE,113,1.1,1.1,96,0.00,CLR,,0.00,WeatherDisplay:10.37,2013-08-18 09:51:00,
2013-08-18 06:00:00,78.3,77.4,30.03,ESE,107,3.4,3.4,97,0.00,CLR,,0.00,WeatherDisplay:10.37,2013-08-18 10:00:00,
2013-08-18 06:01:00,78.3,77.4,30.03,SE,130,2.3,2.3,97,0.00,CLR,,0.00,WeatherDisplay:10.37,2013-08-18 10:01:00,
2013-08-18 06:05:00,78.3,77.4,30.03,SSE,151,3.4,3.4,97,0.00,CLR,,0.00,WeatherDisplay:10.37,2013-08-18 10:05:00,
2013-08-18 06:10:00,78.3,77.4,30.03,ESE,104,2.0,2.0,97,0.00,CLR,,0.00,WeatherDisplay:10.37,2013-08-18 10:10:00,
2013-08-18 06:16:00,78.3,77.4,30.03,ESE,123,3.0,3.0,97,0.00,CLR,,0.00,WeatherDisplay:10.37,2013-08-18 10:16:00,
2013-08-18 06:21:00,78.3,77.4,30.03,ESE,115,3.4,3.4,97,0.00,CLR,,0.00,WeatherDisplay:10.37,2013-08-18 10:21:00,
2013-08-18 06:31:00,78.3,77.4,30.03,ESE,105,4.0,4.0,97,0.00,CLR,,0.00,WeatherDisplay:10.37,2013-08-18 10:31:00,
2013-08-18 06:36:00,78.3,77.4,30.03,ESE,117,2.3,2.3,97,0.00,CLR,,0.00,WeatherDisplay:10.37,2013-08-18 10:36:00,
2013-08-18 06:46:00,78.3,77.4,30.03,SSE,167,3.0,3.0,97,0.00,CLR,,0.00,WeatherDisplay:10.37,2013-08-18 10:46:00,
2013-08-18 06:51:00,78.3,77.4,30.03,ESE,109,5.8,5.8,97,0.00,CLR,,0.00,WeatherDisplay:10.37,2013-08-18 10:51:00,
2013-08-18 07:00:00,78.3,77.4,30.03,SE,125,3.4,3.4,97,0.00,CLR,,0.00,WeatherDisplay:10.37,2013-08-18 11:00:00,
2013-08-18 07:01:00,78.4,77.2,30.03,SE,128,3.4,3.4,96,0.01,RA,,0.01,WeatherDisplay:10.37,2013-08-18 11:01:00,
2013-08-18 07:05:00,78.4,77.5,30.03,SE,126,2.3,2.3,97,0.00,CLR,,0.00,WeatherDisplay:10.37,2013-08-18 11:05:00,
2013-08-18 07:10:00,78.4,77.2,30.03,SE,131,3.4,3.4,96,0.00,CLR,,0.00,WeatherDisplay:10.37,2013-08-18 11:10:00,
2013-08-18 07:16:00,78.3,77.4,30.03,ESE,105,1.1,1.1,97,0.01,RA,,0.01,WeatherDisplay:10.37,2013-08-18 11:16:00,
2013-08-18 07:21:00,78.3,77.4,30.03,ESE,118,3.4,3.4,97,0.01,CLR,,0.01,WeatherDisplay:10.37,2013-08-18 11:21:00,
2013-08-18 07:31:00,78.4,77.5,30.03,ESE,109,4.0,4.0,97,0.01,CLR,,0.01,WeatherDisplay:10.37,2013-08-18 11:31:00,
2013-08-18 07:36:00,78.5,77.6,30.03,ESE,111,3.4,3.4,97,0.01,CLR,,0.01,WeatherDisplay:10.37,2013-08-18 11:36:00,
2013-08-18 07:46:00,78.7,77.8,30.04,East,92,3.0,3.0,97,0.01,CLR,,0.01,WeatherDisplay:10.37,2013-08-18 11:46:00,
2013-08-18 07:51:00,78.8,77.9,30.04,SE,124,2.3,2.3,97,0.01,CLR,,0.01,WeatherDisplay:10.37,2013-08-18 11:51:00,
2013-08-18 08:00:00,79.1,78.2,30.04,SE,134,5.8,5.8,97,0.01,CLR,,0.01,WeatherDisplay:10.37,2013-08-18 12:00:00,
2013-08-18 08:01:00,79.8,78.6,30.04,East,92,6.0,6.0,96,0.00,CLR,,0.01,WeatherDisplay:10.37,2013-08-18 12:01:00,
2013-08-18 08:05:00,79.3,78.4,30.04,ESE,122,3.4,3.4,97,0.01,CLR,,0.01,WeatherDisplay:10.37,2013-08-18 12:05:00,
2013-08-18 08:10:00,79.7,78.8,30.04,East,95,6.0,6.0,97,0.01,CLR,,0.01,WeatherDisplay:10.37,2013-08-18 12:10:00,
2013-08-18 08:16:00,80.2,79.0,30.04,ESE,103,4.0,4.0,96,0.00,CLR,,0.01,WeatherDisplay:10.37,2013-08-18 12:16:00,
2013-08-18 08:21:00,80.7,79.1,30.04,ESE,123,4.6,4.6,95,0.00,CLR,,0.01,WeatherDisplay:10.37,2013-08-18 12:21:00,
2013-08-18 08:31:00,81.4,79.2,30.04,East,86,6.9,6.9,93,0.00,CLR,,0.01,WeatherDisplay:10.37,2013-08-18 12:31:00,
2013-08-18 08:36:00,81.8,79.6,30.04,East,92,3.4,3.4,93,0.00,CLR,,0.01,WeatherDisplay:10.37,2013-08-18 12:36:00,
2013-08-18 08:46:00,82.5,79.6,30.05,ESE,103,5.8,5.8,91,0.00,CLR,,0.01,WeatherDisplay:10.37,2013-08-18 12:46:00,
2013-08-18 08:51:00,82.7,79.5,30.05,East,94,7.0,7.0,90,0.00,CLR,,0.01,WeatherDisplay:10.37,2013-08-18 12:51:00,
2013-08-18 09:00:00,83.2,79.6,30.05,ENE,76,8.1,8.1,89,0.00,CLR,,0.01,WeatherDisplay:10.37,2013-08-18 13:00:00,
2013-08-18 09:01:00,83.7,79.8,30.05,South,180,4.0,4.0,88,0.00,SCT,,0.01,WeatherDisplay:10.37,2013-08-18 13:01:00,
2013-08-18 09:05:00,83.3,79.7,30.05,SE,143,3.4,3.4,89,0.00,SCT,,0.01,WeatherDisplay:10.37,2013-08-18 13:05:00,
2013-08-18 09:10:00,83.6,80.0,30.05,SE,130,4.0,4.0,89,0.00,SCT,,0.01,WeatherDisplay:10.37,2013-08-18 13:10:00,
2013-08-18 09:16:00,83.9,79.3,30.06,East,94,7.0,7.0,86,0.00,SCT,,0.01,WeatherDisplay:10.37,2013-08-18 13:16:00,
2013-08-18 09:21:00,84.1,79.1,30.06,ESE,103,12.6,12.6,85,0.00,SCT,,0.01,WeatherDisplay:10.37,2013-08-18 13:21:00,
2013-08-18 09:31:00,84.7,79.3,30.06,East,101,6.9,6.9,84,0.00,SCT,,0.01,WeatherDisplay:10.37,2013-08-18 13:31:00,
2013-08-18 09:36:00,85.2,79.4,30.06,East,94,6.9,6.9,83,0.00,SCT,,0.01,WeatherDisplay:10.37,2013-08-18 13:36:00,
2013-08-18 09:46:00,85.9,79.0,30.06,SE,132,6.9,6.9,80,0.00,SCT,,0.01,WeatherDisplay:10.37,2013-08-18 13:46:00,
2013-08-18 09:51:00,86.0,79.1,30.06,ESE,120,4.0,4.0,80,0.00,SCT,,0.01,WeatherDisplay:10.37,2013-08-18 13:51:00,
2013-08-18 10:00:00,86.5,79.2,30.06,SE,124,5.8,5.8,79,0.00,SCT,,0.01,WeatherDisplay:10.37,2013-08-18 14:00:00,
2013-08-18 10:01:00,87.0,78.9,30.06,SE,128,9.2,9.2,77,0.00,FEW,,0.01,WeatherDisplay:10.37,2013-08-18 14:01:00,
2013-08-18 10:05:00,86.7,79.0,30.06,SE,129,6.9,6.9,78,0.00,FEW,,0.01,WeatherDisplay:10.37,2013-08-18 14:05:00,
2013-08-18 10:10:00,87.0,78.9,30.06,East,100,6.9,6.9,77,0.00,FEW,,0.01,WeatherDisplay:10.37,2013-08-18 14:10:00,
2013-08-18 10:16:00,87.2,78.7,30.06,SSE,148,11.5,11.5,76,0.00,FEW,,0.01,WeatherDisplay:10.37,2013-08-18 14:16:00,
2013-08-18 10:21:00,87.6,79.1,30.07,ENE,74,10.3,10.3,76,0.00,FEW,,0.01,WeatherDisplay:10.37,2013-08-18 14:21:00,
2013-08-18 10:31:00,88.3,79.4,30.07,ESE,123,6.9,6.9,75,0.00,FEW,,0.01,WeatherDisplay:10.37,2013-08-18 14:31:00,
2013-08-18 10:36:00,88.6,78.8,30.07,ESE,116,10.3,10.3,73,0.00,FEW,,0.01,WeatherDisplay:10.37,2013-08-18 14:36:00,
2013-08-18 10:46:00,88.6,79.2,30.07,East,101,10.0,10.0,74,0.00,FEW,,0.01,WeatherDisplay:10.37,2013-08-18 14:46:00,
2013-08-18 10:51:00,88.7,79.3,30.07,East,85,5.8,5.8,74,0.00,FEW,,0.01,WeatherDisplay:10.37,2013-08-18 14:51:00,
2013-08-18 11:00:00,89.5,78.4,30.07,ESE,109,12.0,12.0,70,0.00,FEW,,0.01,WeatherDisplay:10.37,2013-08-18 15:00:00,
2013-08-18 11:01:00,90.3,79.2,30.06,ESE,122,6.9,6.9,70,0.00,SCT,,0.01,WeatherDisplay:10.37,2013-08-18 15:01:00,
2013-08-18 11:05:00,89.8,79.1,30.07,SE,125,8.0,8.0,71,0.00,SCT,,0.01,WeatherDisplay:10.37,2013-08-18 15:05:00,
2013-08-18 11:10:00,90.2,78.6,30.06,SSE,147,10.3,10.3,69,0.00,SCT,,0.01,WeatherDisplay:10.37,2013-08-18 15:10:00,
2013-08-18 11:16:00,90.5,78.5,30.07,East,98,10.3,10.3,68,0.00,SCT,,0.01,WeatherDisplay:10.37,2013-08-18 15:16:00,
2013-08-18 11:21:00,90.8,77.9,30.07,ENE,76,13.0,13.0,66,0.00,SCT,,0.01,WeatherDisplay:10.37,2013-08-18 15:21:00,
2013-08-18 11:31:00,91.0,77.6,30.07,East,94,11.5,11.5,65,0.00,SCT,,0.01,WeatherDisplay:10.37,2013-08-18 15:31:00,
2013-08-18 11:36:00,91.0,77.6,30.07,East,89,8.1,8.1,65,0.00,SCT,,0.01,WeatherDisplay:10.37,2013-08-18 15:36:00,
2013-08-18 11:46:00,91.2,77.8,30.07,ESE,102,5.0,5.0,65,0.00,SCT,,0.01,WeatherDisplay:10.37,2013-08-18 15:46:00,
2013-08-18 11:51:00,91.5,78.1,30.07,ESE,123,11.5,11.5,65,0.00,SCT,,0.01,WeatherDisplay:10.37,2013-08-18 15:51:00,
2013-08-18 12:00:00,92.0,77.6,30.07,ESE,108,6.9,6.9,63,0.00,SCT,,0.01,WeatherDisplay:10.37,2013-08-18 16:00:00,
2013-08-18 12:01:00,92.2,77.3,30.07,ESE,113,7.0,7.0,62,0.00,BKN,,0.01,WeatherDisplay:10.37,2013-08-18 16:01:00,
2013-08-18 12:05:00,92.2,76.8,30.07,SE,133,11.0,11.0,61,0.00,BKN,,0.01,WeatherDisplay:10.37,2013-08-18 16:05:00,
2013-08-18 12:10:00,92.2,77.8,30.07,SE,130,6.0,6.0,63,0.00,BKN,,0.01,WeatherDisplay:10.37,2013-08-18 16:10:00,
2013-08-18 12:16:00,92.5,77.1,30.07,East,90,10.3,10.3,61,0.00,BKN,,0.01,WeatherDisplay:10.37,2013-08-18 16:16:00,
2013-08-18 12:21:00,92.4,77.0,30.06,ESE,117,6.0,6.0,61,0.00,BKN,,0.01,WeatherDisplay:10.37,2013-08-18 16:21:00,
2013-08-18 12:31:00,92.5,77.1,30.06,ESE,108,9.2,9.2,61,0.00,BKN,,0.01,WeatherDisplay:10.37,2013-08-18 16:31:00,
2013-08-18 12:36:00,92.6,76.7,30.06,SE,138,5.0,5.0,60,0.00,BKN,,0.01,WeatherDisplay:10.37,2013-08-18 16:36:00,
2013-08-18 12:46:00,92.7,75.8,30.06,SE,124,9.2,9.2,58,0.00,BKN,,0.01,WeatherDisplay:10.37,2013-08-18 16:46:00,
2013-08-18 12:51:00,92.8,76.4,30.06,East,87,8.1,8.1,59,0.00,BKN,,0.01,WeatherDisplay:10.37,2013-08-18 16:51:00,
2013-08-18 13:00:00,93.6,77.1,30.05,East,96,10.3,10.3,59,0.00,BKN,,0.01,WeatherDisplay:10.37,2013-08-18 17:00:00,
2013-08-18 13:01:00,93.4,76.9,30.05,ESE,108,7.0,7.0,59,0.00,BKN,,0.01,WeatherDisplay:10.37,2013-08-18 17:01:00,
2013-08-18 13:05:00,93.8,76.8,30.05,ESE,111,3.4,3.4,58,0.00,BKN,,0.01,WeatherDisplay:10.37,2013-08-18 17:05:00,
2013-08-18 13:10:00,93.4,76.4,30.05,ESE,122,7.0,7.0,58,0.00,BKN,,0.01,WeatherDisplay:10.37,2013-08-18 17:10:00,
2013-08-18 13:16:00,93.9,76.4,30.05,SE,128,10.3,10.3,57,0.00,BKN,,0.01,WeatherDisplay:10.37,2013-08-18 17:16:00,
2013-08-18 13:21:00,94.2,76.1,30.05,SE,131,8.1,8.1,56,0.00,BKN,,0.01,WeatherDisplay:10.37,2013-08-18 17:21:00,
2013-08-18 13:31:00,94.8,76.7,30.04,ESE,123,8.1,8.1,56,0.00,BKN,,0.01,WeatherDisplay:10.37,2013-08-18 17:31:00,
2013-08-18 13:36:00,95.1,75.8,30.04,SSE,152,5.8,5.8,54,0.00,BKN,,0.01,WeatherDisplay:10.37,2013-08-18 17:36:00,
2013-08-18 13:46:00,94.8,76.1,30.04,SSE,147,4.6,4.6,55,0.00,BKN,,0.01,WeatherDisplay:10.37,2013-08-18 17:46:00,
2013-08-18 13:51:00,94.5,76.4,30.04,ESE,103,3.4,3.4,56,0.00,BKN,,0.01,WeatherDisplay:10.37,2013-08-18 17:51:00,
2013-08-18 14:00:00,93.9,76.9,30.04,ESE,112,4.0,4.0,58,0.00,BKN,,0.01,WeatherDisplay:10.37,2013-08-18 18:00:00,
2013-08-18 14:01:00,93.2,76.2,30.04,ENE,69,3.4,3.4,58,0.00,SCT,,0.01,WeatherDisplay:10.37,2013-08-18 18:01:00,
2013-08-18 14:05:00,93.9,76.9,30.04,ESE,105,9.2,9.2,58,0.00,SCT,,0.01,WeatherDisplay:10.37,2013-08-18 18:05:00,
2013-08-18 14:10:00,93.3,75.8,30.04,ESE,105,8.1,8.1,57,0.00,SCT,,0.01,WeatherDisplay:10.37,2013-08-18 18:10:00,
2013-08-18 14:16:00,92.9,75.9,30.03,East,96,9.2,9.2,58,0.00,SCT,,0.01,WeatherDisplay:10.37,2013-08-18 18:16:00,
2013-08-18 14:21:00,92.9,76.5,30.03,ESE,105,3.4,3.4,59,0.00,SCT,,0.01,WeatherDisplay:10.37,2013-08-18 18:21:00,
2013-08-18 14:31:00,93.2,76.2,30.03,ENE,69,5.8,5.8,58,0.00,SCT,,0.01,WeatherDisplay:10.37,2013-08-18 18:31:00,
2013-08-18 14:36:00,93.9,76.9,30.03,ESE,112,9.0,9.0,58,0.00,SCT,,0.01,WeatherDisplay:10.37,2013-08-18 18:36:00,
2013-08-18 14:46:00,94.5,75.8,30.02,NNE,30,3.4,3.4,55,0.00,SCT,,0.01,WeatherDisplay:10.37,2013-08-18 18:46:00,
2013-08-18 14:51:00,95.0,76.3,30.02,East,90,5.0,5.0,55,0.00,SCT,,0.01,WeatherDisplay:10.37,2013-08-18 18:51:00,
2013-08-18 15:00:00,95.4,75.6,30.02,SE,136,3.4,3.4,53,0.00,SCT,,0.01,WeatherDisplay:10.37,2013-08-18 19:00:00,
2013-08-18 15:01:00,94.3,76.7,30.02,SE,125,12.6,12.6,57,0.00,BKN,,0.01,WeatherDisplay:10.37,2013-08-18 19:01:00,
2013-08-18 15:05:00,95.8,76.5,30.02,East,96,9.2,9.2,54,0.00,BKN,,0.01,WeatherDisplay:10.37,2013-08-18 19:05:00,
2013-08-18 15:10:00,95.1,76.9,30.02,East,97,11.5,11.5,56,0.00,BKN,,0.01,WeatherDisplay:10.37,2013-08-18 19:10:00,
2013-08-18 15:16:00,91.5,76.1,30.02,ESE,120,9.2,9.2,61,0.00,BKN,,0.01,WeatherDisplay:10.37,2013-08-18 19:16:00,
2013-08-18 15:21:00,89.7,76.4,30.02,ESE,105,12.6,12.6,65,0.00,BKN,,0.01,WeatherDisplay:10.37,2013-08-18 19:21:00,
2013-08-18 15:31:00,87.3,75.4,30.02,ENE,69,7.0,7.0,68,0.00,BKN,,0.01,WeatherDisplay:10.37,2013-08-18 19:31:00,
2013-08-18 15:36:00,87.1,75.7,30.01,ESE,111,3.4,3.4,69,0.00,BKN,,0.01,WeatherDisplay:10.37,2013-08-18 19:36:00,
2013-08-18 15:46:00,88.4,76.9,30.01,ESE,113,7.0,7.0,69,0.00,BKN,,0.01,WeatherDisplay:10.37,2013-08-18 19:46:00,
2013-08-18 15:51:00,88.9,76.1,30.00,SE,134,3.4,3.4,66,0.00,BKN,,0.01,WeatherDisplay:10.37,2013-08-18 19:51:00,
2013-08-18 16:00:00,89.2,75.9,30.00,SSE,155,4.6,4.6,65,0.00,BKN,,0.01,WeatherDisplay:10.37,2013-08-18 20:00:00,
2013-08-18 16:01:00,89.4,75.1,30.01,SE,127,9.2,9.2,63,0.00,OVC,,0.01,WeatherDisplay:10.37,2013-08-18 20:01:00,
2013-08-18 16:05:00,89.3,76.0,30.00,ESE,121,4.0,4.0,65,0.00,OVC,,0.01,WeatherDisplay:10.37,2013-08-18 20:05:00,
2013-08-18 16:10:00,89.5,74.8,30.01,SSW,205,9.2,9.2,62,0.00,OVC,,0.01,WeatherDisplay:10.37,2013-08-18 20:10:00,
2013-08-18 16:16:00,89.1,76.7,30.01,WNW,285,5.8,5.8,67,0.00,OVC,,0.01,WeatherDisplay:10.37,2013-08-18 20:16:00,
2013-08-18 16:21:00,88.5,77.0,30.01,WNW,292,6.9,6.9,69,0.00,OVC,,0.01,WeatherDisplay:10.37,2013-08-18 20:21:00,
2013-08-18 16:31:00,88.0,77.8,30.01,South,186,9.0,9.0,72,0.00,OVC,,0.01,WeatherDisplay:10.37,2013-08-18 20:31:00,
2013-08-18 16:36:00,87.6,77.0,30.01,SW,236,5.0,5.0,71,0.00,OVC,,0.01,WeatherDisplay:10.37,2013-08-18 20:36:00,
2013-08-18 16:46:00,87.4,76.8,30.01,SW,232,5.0,5.0,71,0.00,OVC,,0.01,WeatherDisplay:10.37,2013-08-18 20:46:00,
2013-08-18 16:51:00,87.5,76.5,30.01,SSW,212,6.0,6.0,70,0.00,OVC,,0.01,WeatherDisplay:10.37,2013-08-18 20:51:00,
2013-08-18 17:00:00,87.6,77.0,30.01,NW,305,3.4,3.4,71,0.00,OVC,,0.01,WeatherDisplay:10.37,2013-08-18 21:00:00,
2013-08-18 17:01:00,87.2,75.8,30.01,WSW,244,3.0,3.0,69,0.00,OVC,,0.01,WeatherDisplay:10.37,2013-08-18 21:01:00,
2013-08-18 17:05:00,87.5,76.9,30.02,SSW,193,3.4,3.4,71,0.00,OVC,,0.01,WeatherDisplay:10.37,2013-08-18 21:05:00,
2013-08-18 17:10:00,87.2,76.2,30.01,WSW,246,3.0,3.0,70,0.00,OVC,,0.01,WeatherDisplay:10.37,2013-08-18 21:10:00,
2013-08-18 17:16:00,87.0,77.3,30.01,West,278,6.0,6.0,73,0.00,OVC,,0.01,WeatherDisplay:10.37,2013-08-18 21:16:00,
2013-08-18 17:21:00,86.5,77.6,30.01,North,350,2.3,2.3,75,0.00,OVC,,0.01,WeatherDisplay:10.37,2013-08-18 21:21:00,
2013-08-18 17:31:00,86.0,77.1,30.03,NE,37,6.9,6.9,75,0.00,OVC,,0.01,WeatherDisplay:10.37,2013-08-18 21:31:00,
2013-08-18 17:36:00,85.8,77.8,30.04,North,5,3.4,3.4,77,0.00,OVC,,0.01,WeatherDisplay:10.37,2013-08-18 21:36:00,
2013-08-18 17:46:00,85.0,77.4,30.02,North,5,12.0,12.0,78,0.00,OVC,,0.01,WeatherDisplay:10.37,2013-08-18 21:46:00,
2013-08-18 17:51:00,84.5,77.3,30.03,NE,46,10.3,10.3,79,0.00,OVC,,0.01,WeatherDisplay:10.37,2013-08-18 21:51:00,
2013-08-18 18:00:00,83.7,76.1,30.03,NNW,336,6.0,6.0,78,0.00,OVC,,0.01,WeatherDisplay:10.37,2013-08-18 22:00:00,
2013-08-18 18:01:00,82.8,76.4,30.03,North,350,3.4,3.4,81,0.00,OVC,,0.01,WeatherDisplay:10.37,2013-08-18 22:01:00,
2013-08-18 18:05:00,83.1,76.3,30.03,North,350,4.6,4.6,80,0.00,OVC,,0.01,WeatherDisplay:10.37,2013-08-18 22:05:00,
2013-08-18 18:10:00,82.9,76.5,30.03,North,5,4.0,4.0,81,0.00,OVC,,0.01,WeatherDisplay:10.37,2013-08-18 22:10:00,
2013-08-18 18:16:00,82.5,76.1,30.04,East,99,3.0,3.0,81,0.00,OVC,,0.01,WeatherDisplay:10.37,2013-08-18 22:16:00,
2013-08-18 18:21:00,82.2,75.8,30.04,North,355,5.8,5.8,81,0.00,OVC,,0.01,WeatherDisplay:10.37,2013-08-18 22:21:00,
2013-08-18 18:31:00,81.5,76.2,30.04,North,5,3.4,3.4,84,0.00,-RA,,0.01,WeatherDisplay:10.37,2013-08-18 22:31:00,
2013-08-18 18:36:00,81.3,76.4,30.04,ESE,102,3.4,3.4,85,0.00,-RA,,0.01,WeatherDisplay:10.37,2013-08-18 22:36:00,
2013-08-18 18:46:00,80.9,76.3,30.04,NW,309,2.3,2.3,86,0.00,-RA,,0.01,WeatherDisplay:10.37,2013-08-18 22:46:00,
2013-08-18 18:51:00,80.8,76.9,30.04,NE,40,2.3,2.3,88,0.00,-RA,,0.01,WeatherDisplay:10.37,2013-08-18 22:51:00,
2013-08-18 19:00:00,80.5,77.0,30.04,East,90,1.1,1.1,89,0.01,-RA,,0.02,WeatherDisplay:10.37,2013-08-18 23:00:00,
2013-08-18 19:01:00,79.7,76.8,30.05,ENE,76,5.8,5.8,91,0.04,RA,,0.05,WeatherDisplay:10.37,2013-08-18 23:01:00,
2013-08-18 19:05:00,80.2,77.0,30.03,ESE,104,2.3,2.3,90,0.02,RA,,0.03,WeatherDisplay:10.37,2013-08-18 23:05:00,
2013-08-18 19:10:00,79.8,76.9,30.04,East,93,6.0,6.0,91,0.04,RA,,0.05,WeatherDisplay:10.37,2013-08-18 23:10:00,
2013-08-18 19:16:00,79.3,76.4,30.06,ESE,121,9.2,9.2,91,0.05,RA,,0.06,WeatherDisplay:10.37,2013-08-18 23:16:00,
2013-08-18 19:21:00,78.7,76.2,30.05,East,89,9.2,9.2,92,0.07,RA,,0.08,WeatherDisplay:10.37,2013-08-18 23:21:00,
2013-08-18 19:31:00,77.8,75.6,30.06,SSE,147,3.4,3.4,93,0.10,RA,,0.11,WeatherDisplay:10.37,2013-08-18 23:31:00,
2013-08-18 19:36:00,77.4,75.5,30.06,SSE,167,3.4,3.4,94,0.10,RA,,0.11,WeatherDisplay:10.37,2013-08-18 23:36:00,
2013-08-18 19:46:00,77.1,75.2,30.06,South,173,3.4,3.4,94,0.11,RA,,0.12,WeatherDisplay:10.37,2013-08-18 23:46:00,
2013-08-18 19:51:00,77.0,75.5,30.06,South,184,2.3,2.3,95,0.11,RA,,0.13,WeatherDisplay:10.37,2013-08-18 23:51:00,
2013-08-18 20:00:00,76.8,75.3,30.07,SSE,151,3.4,3.4,95,0.14,RA,,0.16,WeatherDisplay:10.37,2013-08-19 00:00:00,
2013-08-18 20:01:00,76.4,74.9,30.07,South,173,3.4,3.4,95,0.17,-RA,,0.22,WeatherDisplay:10.37,2013-08-19 00:01:00,
2013-08-18 20:05:00,76.6,74.7,30.07,SE,133,3.4,3.4,94,0.16,-RA,,0.19,WeatherDisplay:10.37,2013-08-19 00:05:00,
2013-08-18 20:10:00,76.4,74.9,30.07,SSW,194,3.4,3.4,95,0.17,-RA,,0.22,WeatherDisplay:10.37,2013-08-19 00:10:00,
2013-08-18 20:16:00,76.3,75.1,30.07,SW,230,2.3,2.3,96,0.18,-RA,,0.24,WeatherDisplay:10.37,2013-08-19 00:16:00,
2013-08-18 20:21:00,76.3,75.1,30.07,West,273,1.1,1.1,96,0.19,-RA,,0.27,WeatherDisplay:10.37,2013-08-19 00:21:00,
2013-08-18 20:31:00,76.2,75.0,30.06,West,280,2.3,2.3,96,0.24,-RA,,0.35,WeatherDisplay:10.37,2013-08-19 00:31:00,
2013-08-18 20:36:00,76.2,75.0,30.06,NW,306,1.1,1.1,96,0.26,-RA,,0.37,WeatherDisplay:10.37,2013-08-19 00:36:00,
2013-08-18 20:46:00,76.3,75.1,30.06,NNW,347,3.4,3.4,96,0.27,-RA,,0.39,WeatherDisplay:10.37,2013-08-19 00:46:00,
2013-08-18 20:51:00,76.4,75.5,30.06,ENE,72,2.3,2.3,97,0.27,-RA,,0.39,WeatherDisplay:10.37,2013-08-19 00:51:00,
2013-08-18 21:00:00,76.4,75.5,30.06,NE,55,1.1,1.1,97,0.23,-RA,,0.39,WeatherDisplay:10.37,2013-08-19 01:00:00,
2013-08-18 21:01:00,76.3,75.4,30.06,NNE,17,3.4,3.4,97,0.17,-RA,,0.39,WeatherDisplay:10.37,2013-08-19 01:01:00,
2013-08-18 21:05:00,76.4,75.5,30.06,East,79,1.1,1.1,97,0.20,-RA,,0.39,WeatherDisplay:10.37,2013-08-19 01:05:00,
2013-08-18 21:10:00,76.3,75.4,30.06,NE,38,2.3,2.3,97,0.18,-RA,,0.39,WeatherDisplay:10.37,2013-08-19 01:10:00,
2013-08-18 21:16:00,76.3,75.1,30.06,NNE,17,3.4,3.4,96,0.15,-RA,,0.39,WeatherDisplay:10.37,2013-08-19 01:16:00,
2013-08-18 21:21:00,76.3,75.1,30.06,North,360,3.4,3.4,96,0.12,-RA,,0.39,WeatherDisplay:10.37,2013-08-19 01:21:00,
2013-08-18 21:31:00,76.3,75.4,30.06,NNW,333,1.1,1.1,97,0.04,-RA,,0.39,WeatherDisplay:10.37,2013-08-19 01:31:00,
2013-08-18 21:36:00,76.3,75.4,30.06,NNW,333,1.1,1.1,97,0.03,-RA,,0.39,WeatherDisplay:10.37,2013-08-19 01:36:00,
2013-08-18 21:46:00,76.4,75.5,30.06,NNW,336,1.1,1.1,97,0.00,-RA,,0.39,WeatherDisplay:10.37,2013-08-19 01:46:00,
2013-08-18 21:51:00,76.3,75.4,30.06,NE,42,1.1,1.1,97,0.00,-RA,,0.39,WeatherDisplay:10.37,2013-08-19 01:51:00,
2013-08-18 22:00:00,76.2,75.3,30.07,NNE,19,1.1,0.0,97,0.00,-RA,,0.39,WeatherDisplay:10.37,2013-08-19 02:00:00,
2013-08-18 22:01:00,76.2,75.3,30.07,NNE,19,0.0,0.0,97,0.00,SCT,,0.39,WeatherDisplay:10.37,2013-08-19 02:01:00,
2013-08-18 22:05:00,76.2,75.3,30.07,NNE,19,2.3,2.3,97,0.00,SCT,,0.39,WeatherDisplay:10.37,2013-08-19 02:05:00,
2013-08-18 22:10:00,76.2,75.3,30.07,NNE,19,0.0,0.0,97,0.00,SCT,,0.39,WeatherDisplay:10.37,2013-08-19 02:10:00,
2013-08-18 22:16:00,76.3,75.4,30.07,NNE,19,0.0,0.0,97,0.00,SCT,,0.39,WeatherDisplay:10.37,2013-08-19 02:16:00,
2013-08-18 22:21:00,76.3,75.4,30.08,North,11,1.1,1.1,97,0.00,SCT,,0.39,WeatherDisplay:10.37,2013-08-19 02:21:00,
2013-08-18 22:31:00,76.4,75.8,30.08,ESE,121,2.3,2.3,98,0.00,SCT,,0.39,WeatherDisplay:10.37,2013-08-19 02:31:00,
2013-08-18 22:36:00,76.4,75.8,30.08,ESE,108,2.3,2.3,98,0.00,SCT,,0.39,WeatherDisplay:10.37,2013-08-19 02:36:00,
2013-08-18 22:46:00,76.5,75.9,30.08,SE,125,3.4,3.4,98,0.01,RA,,0.40,WeatherDisplay:10.37,2013-08-19 02:46:00,
2013-08-18 22:51:00,76.5,75.9,30.09,South,178,5.8,5.8,98,0.01,SCT,,0.40,WeatherDisplay:10.37,2013-08-19 02:51:00,
2013-08-18 23:00:00,76.6,75.7,30.09,South,182,3.4,3.4,97,0.01,SCT,,0.40,WeatherDisplay:10.37,2013-08-19 03:00:00,
2013-08-18 23:01:00,76.6,75.7,30.08,SW,223,3.4,3.4,97,0.01,FEW,,0.40,WeatherDisplay:10.37,2013-08-19 03:01:00,
2013-08-18 23:05:00,76.6,75.7,30.09,SSE,168,3.4,3.4,97,0.01,FEW,,0.40,WeatherDisplay:10.37,2013-08-19 03:05:00,
2013-08-18 23:10:00,76.6,75.7,30.08,South,173,4.0,4.0,97,0.01,FEW,,0.40,WeatherDisplay:10.37,2013-08-19 03:10:00,
2013-08-18 23:16:00,76.7,75.8,30.08,SE,132,2.3,2.3,97,0.01,FEW,,0.40,WeatherDisplay:10.37,2013-08-19 03:16:00,
2013-08-18 23:21:00,76.7,75.8,30.08,ESE,123,4.0,4.0,97,0.01,FEW,,0.40,WeatherDisplay:10.37,2013-08-19 03:21:00,
2013-08-18 23:31:00,76.8,75.9,30.07,ESE,113,0.0,0.0,97,0.01,BKN,,0.40,WeatherDisplay:10.37,2013-08-19 03:31:00,
2013-08-18 23:36:00,76.7,75.8,30.06,ESE,113,1.1,1.1,97,0.01,BKN,,0.40,WeatherDisplay:10.37,2013-08-19 03:36:00,
2013-08-18 23:46:00,76.8,75.9,30.07,WSW,242,2.3,2.3,97,0.00,SCT,,0.40,WeatherDisplay:10.37,2013-08-19 03:46:00,
2013-08-18 23:51:00,76.7,75.8,30.06,WSW,242,0.0,0.0,97,0.00,SCT,,0.40,WeatherDisplay:10.37,2013-08-19 03:51:00,